sensor_id;sensor_type;location;lat;lon;timestamp;temperature;humidity
43999;DHT22;51319;52.162;5.302;2022-08-05T00:02:23;21.20;74.20
43999;DHT22;51319;52.162;5.302;2022-08-05T00:04:49;21.20;74.40
43999;DHT22;51319;52.162;5.302;2022-08-05T00:07:22;21.10;74.60
43999;DHT22;51319;52.162;5.302;2022-08-05T00:10:08;21.10;74.70
43999;DHT22;51319;52.162;5.302;2022-08-05T00:12:36;21.10;74.90
43999;DHT22;51319;52.162;5.302;2022-08-05T00:15:23;21.10;75.30
43999;DHT22;51319;52.162;5.302;2022-08-05T00:18:09;21.10;75.50
43999;DHT22;51319;52.162;5.302;2022-08-05T00:20:47;21.00;75.60
43999;DHT22;51319;52.162;5.302;2022-08-05T00:23:14;21.10;75.80
43999;DHT22;51319;52.162;5.302;2022-08-05T00:25:41;21.00;75.80
43999;DHT22;51319;52.162;5.302;2022-08-05T00:28:12;21.00;76.10
43999;DHT22;51319;52.162;5.302;2022-08-05T00:30:38;21.10;76.20
43999;DHT22;51319;52.162;5.302;2022-08-05T00:33:07;21.10;76.20
43999;DHT22;51319;52.162;5.302;2022-08-05T00:35:53;21.00;76.10
43999;DHT22;51319;52.162;5.302;2022-08-05T00:38:39;21.00;76.30
43999;DHT22;51319;52.162;5.302;2022-08-05T00:41:06;21.00;76.60
43999;DHT22;51319;52.162;5.302;2022-08-05T00:43:37;20.90;76.60
43999;DHT22;51319;52.162;5.302;2022-08-05T00:46:15;20.90;76.60
43999;DHT22;51319;52.162;5.302;2022-08-05T00:48:41;20.90;76.60
43999;DHT22;51319;52.162;5.302;2022-08-05T00:51:17;20.80;76.70
43999;DHT22;51319;52.162;5.302;2022-08-05T00:54:04;20.80;76.60
43999;DHT22;51319;52.162;5.302;2022-08-05T00:56:30;20.80;76.50
43999;DHT22;51319;52.162;5.302;2022-08-05T00:58:56;20.80;76.60
43999;DHT22;51319;52.162;5.302;2022-08-05T01:01:25;20.80;76.60
43999;DHT22;51319;52.162;5.302;2022-08-05T01:04:11;20.80;76.50
43999;DHT22;51319;52.162;5.302;2022-08-05T01:06:41;20.80;76.50
43999;DHT22;51319;52.162;5.302;2022-08-05T01:09:14;20.80;76.60
43999;DHT22;51319;52.162;5.302;2022-08-05T01:11:48;20.70;76.70
43999;DHT22;51319;52.162;5.302;2022-08-05T01:14:29;20.70;76.80
43999;DHT22;51319;52.162;5.302;2022-08-05T01:17:02;20.70;77.00
43999;DHT22;51319;52.162;5.302;2022-08-05T01:19:50;20.60;76.90
43999;DHT22;51319;52.162;5.302;2022-08-05T01:22:55;20.60;77.10
43999;DHT22;51319;52.162;5.302;2022-08-05T01:28:26;20.50;77.20
43999;DHT22;51319;52.162;5.302;2022-08-05T01:31:04;20.50;77.30
43999;DHT22;51319;52.162;5.302;2022-08-05T01:33:41;20.50;77.40
43999;DHT22;51319;52.162;5.302;2022-08-05T01:36:15;20.50;77.90
43999;DHT22;51319;52.162;5.302;2022-08-05T01:38:44;20.40;77.10
43999;DHT22;51319;52.162;5.302;2022-08-05T01:41:16;20.40;76.90
43999;DHT22;51319;52.162;5.302;2022-08-05T01:43:48;20.40;76.80
43999;DHT22;51319;52.162;5.302;2022-08-05T01:46:15;20.40;76.80
43999;DHT22;51319;52.162;5.302;2022-08-05T01:49:03;20.40;76.80
43999;DHT22;51319;52.162;5.302;2022-08-05T01:51:49;20.40;76.90
43999;DHT22;51319;52.162;5.302;2022-08-05T01:54:18;20.40;77.00
43999;DHT22;51319;52.162;5.302;2022-08-05T01:56:51;20.40;76.90
43999;DHT22;51319;52.162;5.302;2022-08-05T01:59:39;20.50;77.10
43999;DHT22;51319;52.162;5.302;2022-08-05T02:02:13;20.40;77.20
43999;DHT22;51319;52.162;5.302;2022-08-05T02:04:41;20.40;77.20
43999;DHT22;51319;52.162;5.302;2022-08-05T02:07:11;20.30;77.30
43999;DHT22;51319;52.162;5.302;2022-08-05T02:09:47;20.30;77.40
43999;DHT22;51319;52.162;5.302;2022-08-05T02:14:47;20.30;77.50
43999;DHT22;51319;52.162;5.302;2022-08-05T02:17:37;20.20;77.50
43999;DHT22;51319;52.162;5.302;2022-08-05T02:20:31;20.10;77.70
43999;DHT22;51319;52.162;5.302;2022-08-05T02:23:07;20.10;77.70
43999;DHT22;51319;52.162;5.302;2022-08-05T02:25:36;20.00;78.00
43999;DHT22;51319;52.162;5.302;2022-08-05T02:28:21;20.10;78.10
43999;DHT22;51319;52.162;5.302;2022-08-05T02:31:04;20.10;78.10
43999;DHT22;51319;52.162;5.302;2022-08-05T02:33:40;20.00;78.20
43999;DHT22;51319;52.162;5.302;2022-08-05T02:36:10;20.00;78.50
43999;DHT22;51319;52.162;5.302;2022-08-05T02:38:40;20.00;78.50
43999;DHT22;51319;52.162;5.302;2022-08-05T02:41:21;19.90;78.70
43999;DHT22;51319;52.162;5.302;2022-08-05T02:43:49;19.90;78.80
43999;DHT22;51319;52.162;5.302;2022-08-05T02:46:42;19.90;79.00
43999;DHT22;51319;52.162;5.302;2022-08-05T02:49:35;19.90;78.90
43999;DHT22;51319;52.162;5.302;2022-08-05T02:52:08;19.90;79.20
43999;DHT22;51319;52.162;5.302;2022-08-05T02:54:38;19.80;79.30
43999;DHT22;51319;52.162;5.302;2022-08-05T02:57:10;19.80;79.50
43999;DHT22;51319;52.162;5.302;2022-08-05T02:59:56;19.80;79.50
43999;DHT22;51319;52.162;5.302;2022-08-05T03:02:33;19.80;79.70
43999;DHT22;51319;52.162;5.302;2022-08-05T03:05:00;19.80;79.80
43999;DHT22;51319;52.162;5.302;2022-08-05T03:07:27;19.70;79.90
43999;DHT22;51319;52.162;5.302;2022-08-05T03:10:15;19.60;80.00
43999;DHT22;51319;52.162;5.302;2022-08-05T03:12:50;19.60;80.20
43999;DHT22;51319;52.162;5.302;2022-08-05T03:15:19;19.60;80.40
43999;DHT22;51319;52.162;5.302;2022-08-05T03:17:45;19.60;80.60
43999;DHT22;51319;52.162;5.302;2022-08-05T03:20:11;19.60;80.60
43999;DHT22;51319;52.162;5.302;2022-08-05T03:22:39;19.60;80.50
43999;DHT22;51319;52.162;5.302;2022-08-05T03:25:16;19.60;80.60
43999;DHT22;51319;52.162;5.302;2022-08-05T03:28:05;19.60;80.60
43999;DHT22;51319;52.162;5.302;2022-08-05T03:30:34;19.60;80.60
43999;DHT22;51319;52.162;5.302;2022-08-05T03:33:03;19.60;80.60
43999;DHT22;51319;52.162;5.302;2022-08-05T03:35:31;19.60;80.60
43999;DHT22;51319;52.162;5.302;2022-08-05T03:37:59;19.50;80.70
43999;DHT22;51319;52.162;5.302;2022-08-05T03:40:26;19.50;80.60
43999;DHT22;51319;52.162;5.302;2022-08-05T03:42:58;19.50;80.70
43999;DHT22;51319;52.162;5.302;2022-08-05T03:45:41;19.50;80.80
43999;DHT22;51319;52.162;5.302;2022-08-05T03:48:27;19.50;80.80
43999;DHT22;51319;52.162;5.302;2022-08-05T03:51:20;19.50;80.90
43999;DHT22;51319;52.162;5.302;2022-08-05T03:54:44;19.50;81.10
43999;DHT22;51319;52.162;5.302;2022-08-05T03:57:34;19.50;81.20
43999;DHT22;51319;52.162;5.302;2022-08-05T04:00:10;19.50;80.70
43999;DHT22;51319;52.162;5.302;2022-08-05T04:02:43;19.50;80.80
43999;DHT22;51319;52.162;5.302;2022-08-05T04:05:25;19.50;80.90
43999;DHT22;51319;52.162;5.302;2022-08-05T04:08:01;19.50;81.00
43999;DHT22;51319;52.162;5.302;2022-08-05T04:10:28;19.50;81.10
43999;DHT22;51319;52.162;5.302;2022-08-05T04:13:04;19.50;81.70
43999;DHT22;51319;52.162;5.302;2022-08-05T04:15:30;19.50;81.10
43999;DHT22;51319;52.162;5.302;2022-08-05T04:18:03;19.50;81.20
43999;DHT22;51319;52.162;5.302;2022-08-05T04:20:35;19.50;81.30
43999;DHT22;51319;52.162;5.302;2022-08-05T04:23:01;19.50;81.20
43999;DHT22;51319;52.162;5.302;2022-08-05T04:25:29;19.60;81.20
43999;DHT22;51319;52.162;5.302;2022-08-05T04:28:15;19.50;80.90
43999;DHT22;51319;52.162;5.302;2022-08-05T04:30:43;19.60;80.70
43999;DHT22;51319;52.162;5.302;2022-08-05T04:33:09;19.60;80.60
43999;DHT22;51319;52.162;5.302;2022-08-05T04:35:35;19.60;80.70
43999;DHT22;51319;52.162;5.302;2022-08-05T04:38:21;19.60;80.80
43999;DHT22;51319;52.162;5.302;2022-08-05T04:41:05;19.60;81.00
43999;DHT22;51319;52.162;5.302;2022-08-05T04:43:33;19.60;80.70
43999;DHT22;51319;52.162;5.302;2022-08-05T04:46:02;19.60;80.80
43999;DHT22;51319;52.162;5.302;2022-08-05T04:48:30;19.60;80.80
43999;DHT22;51319;52.162;5.302;2022-08-05T04:50:57;19.60;80.90
43999;DHT22;51319;52.162;5.302;2022-08-05T04:53:37;19.60;81.00
43999;DHT22;51319;52.162;5.302;2022-08-05T04:56:06;19.70;80.90
43999;DHT22;51319;52.162;5.302;2022-08-05T04:58:52;19.60;80.70
43999;DHT22;51319;52.162;5.302;2022-08-05T05:01:18;19.60;80.60
43999;DHT22;51319;52.162;5.302;2022-08-05T05:04:04;19.50;80.80
43999;DHT22;51319;52.162;5.302;2022-08-05T05:06:30;19.40;81.00
43999;DHT22;51319;52.162;5.302;2022-08-05T05:09:06;19.30;81.20
43999;DHT22;51319;52.162;5.302;2022-08-05T05:11:32;19.20;81.30
43999;DHT22;51319;52.162;5.302;2022-08-05T05:14:14;19.20;81.60
43999;DHT22;51319;52.162;5.302;2022-08-05T05:16:41;19.10;81.60
43999;DHT22;51319;52.162;5.302;2022-08-05T05:19:09;19.10;81.40
43999;DHT22;51319;52.162;5.302;2022-08-05T05:21:45;19.10;81.80
43999;DHT22;51319;52.162;5.302;2022-08-05T05:24:12;19.10;82.00
43999;DHT22;51319;52.162;5.302;2022-08-05T05:26:43;19.20;81.80
43999;DHT22;51319;52.162;5.302;2022-08-05T05:29:13;19.20;81.60
43999;DHT22;51319;52.162;5.302;2022-08-05T05:31:40;19.30;81.40
43999;DHT22;51319;52.162;5.302;2022-08-05T05:34:12;19.40;81.20
43999;DHT22;51319;52.162;5.302;2022-08-05T05:36:41;19.60;81.00
43999;DHT22;51319;52.162;5.302;2022-08-05T05:39:08;19.70;80.30
43999;DHT22;51319;52.162;5.302;2022-08-05T05:41:36;19.80;79.80
43999;DHT22;51319;52.162;5.302;2022-08-05T05:44:07;19.90;79.50
43999;DHT22;51319;52.162;5.302;2022-08-05T05:46:53;19.90;79.20
43999;DHT22;51319;52.162;5.302;2022-08-05T05:49:21;20.30;78.90
43999;DHT22;51319;52.162;5.302;2022-08-05T05:51:48;20.70;77.50
43999;DHT22;51319;52.162;5.302;2022-08-05T05:54:16;21.20;76.10
43999;DHT22;51319;52.162;5.302;2022-08-05T05:56:42;21.60;74.50
43999;DHT22;51319;52.162;5.302;2022-08-05T05:59:08;21.90;72.90
43999;DHT22;51319;52.162;5.302;2022-08-05T06:01:38;22.20;71.80
43999;DHT22;51319;52.162;5.302;2022-08-05T06:04:09;22.40;70.80
43999;DHT22;51319;52.162;5.302;2022-08-05T06:06:39;22.30;70.10
43999;DHT22;51319;52.162;5.302;2022-08-05T06:09:07;22.40;69.60
43999;DHT22;51319;52.162;5.302;2022-08-05T06:11:34;22.40;69.70
43999;DHT22;51319;52.162;5.302;2022-08-05T06:14:04;22.80;68.90
43999;DHT22;51319;52.162;5.302;2022-08-05T06:16:31;23.20;67.50
43999;DHT22;51319;52.162;5.302;2022-08-05T06:19:03;23.40;65.30
43999;DHT22;51319;52.162;5.302;2022-08-05T06:21:34;23.00;65.10
43999;DHT22;51319;52.162;5.302;2022-08-05T06:24:07;22.70;65.80
43999;DHT22;51319;52.162;5.302;2022-08-05T06:26:39;22.30;66.90
43999;DHT22;51319;52.162;5.302;2022-08-05T06:29:18;22.00;67.50
43999;DHT22;51319;52.162;5.302;2022-08-05T06:32:05;21.80;68.20
43999;DHT22;51319;52.162;5.302;2022-08-05T06:34:51;21.60;68.00
43999;DHT22;51319;52.162;5.302;2022-08-05T06:37:22;21.60;68.40
43999;DHT22;51319;52.162;5.302;2022-08-05T06:40:09;21.90;68.70
43999;DHT22;51319;52.162;5.302;2022-08-05T06:42:35;22.60;66.70
43999;DHT22;51319;52.162;5.302;2022-08-05T06:45:06;22.60;65.70
43999;DHT22;51319;52.162;5.302;2022-08-05T06:47:35;22.20;66.10
43999;DHT22;51319;52.162;5.302;2022-08-05T06:50:21;22.10;66.70
43999;DHT22;51319;52.162;5.302;2022-08-05T06:52:47;22.20;66.40
43999;DHT22;51319;52.162;5.302;2022-08-05T06:55:29;22.20;65.80
43999;DHT22;51319;52.162;5.302;2022-08-05T06:58:02;22.40;65.10
43999;DHT22;51319;52.162;5.302;2022-08-05T07:00:48;22.40;63.20
43999;DHT22;51319;52.162;5.302;2022-08-05T07:03:15;22.40;62.90
43999;DHT22;51319;52.162;5.302;2022-08-05T07:05:42;22.80;61.80
43999;DHT22;51319;52.162;5.302;2022-08-05T07:08:08;23.80;59.00
43999;DHT22;51319;52.162;5.302;2022-08-05T07:10:37;24.80;56.90
43999;DHT22;51319;52.162;5.302;2022-08-05T07:13:03;25.70;54.60
43999;DHT22;51319;52.162;5.302;2022-08-05T07:16:08;26.30;52.10
43999;DHT22;51319;52.162;5.302;2022-08-05T07:19:13;27.00;50.60
43999;DHT22;51319;52.162;5.302;2022-08-05T07:21:59;27.50;48.30
43999;DHT22;51319;52.162;5.302;2022-08-05T07:24:28;28.00;47.40
43999;DHT22;51319;52.162;5.302;2022-08-05T07:26:55;28.40;46.70
43999;DHT22;51319;52.162;5.302;2022-08-05T07:29:21;28.70;45.90
43999;DHT22;51319;52.162;5.302;2022-08-05T07:32:07;28.70;45.60
43999;DHT22;51319;52.162;5.302;2022-08-05T07:34:33;29.10;43.90
43999;DHT22;51319;52.162;5.302;2022-08-05T07:37:02;29.40;43.10
43999;DHT22;51319;52.162;5.302;2022-08-05T07:39:28;29.80;42.70
43999;DHT22;51319;52.162;5.302;2022-08-05T07:42:14;30.20;41.50
43999;DHT22;51319;52.162;5.302;2022-08-05T07:44:41;30.60;41.20
43999;DHT22;51319;52.162;5.302;2022-08-05T07:47:11;30.90;41.50
43999;DHT22;51319;52.162;5.302;2022-08-05T07:49:40;31.20;39.80
43999;DHT22;51319;52.162;5.302;2022-08-05T07:52:20;31.60;38.80
43999;DHT22;51319;52.162;5.302;2022-08-05T07:54:49;32.00;36.70
43999;DHT22;51319;52.162;5.302;2022-08-05T07:57:15;32.20;37.20
43999;DHT22;51319;52.162;5.302;2022-08-05T08:00:04;32.50;35.40
43999;DHT22;51319;52.162;5.302;2022-08-05T08:02:36;32.70;35.40
43999;DHT22;51319;52.162;5.302;2022-08-05T08:05:23;32.80;35.10
43999;DHT22;51319;52.162;5.302;2022-08-05T08:07:52;32.90;33.10
43999;DHT22;51319;52.162;5.302;2022-08-05T08:10:26;33.10;33.20
43999;DHT22;51319;52.162;5.302;2022-08-05T08:12:52;33.10;33.60
43999;DHT22;51319;52.162;5.302;2022-08-05T08:15:18;33.40;34.20
43999;DHT22;51319;52.162;5.302;2022-08-05T08:18:04;33.40;34.60
43999;DHT22;51319;52.162;5.302;2022-08-05T08:20:39;33.80;33.90
43999;DHT22;51319;52.162;5.302;2022-08-05T08:23:26;34.20;34.20
43999;DHT22;51319;52.162;5.302;2022-08-05T08:26:12;34.50;34.10
43999;DHT22;51319;52.162;5.302;2022-08-05T08:28:38;34.70;34.50
43999;DHT22;51319;52.162;5.302;2022-08-05T08:31:24;35.10;32.90
43999;DHT22;51319;52.162;5.302;2022-08-05T08:33:52;35.40;32.90
43999;DHT22;51319;52.162;5.302;2022-08-05T08:36:19;35.60;33.10
43999;DHT22;51319;52.162;5.302;2022-08-05T08:39:06;36.00;32.20
43999;DHT22;51319;52.162;5.302;2022-08-05T08:41:43;36.40;31.00
43999;DHT22;51319;52.162;5.302;2022-08-05T08:44:30;36.60;31.00
43999;DHT22;51319;52.162;5.302;2022-08-05T08:47:18;36.90;30.30
43999;DHT22;51319;52.162;5.302;2022-08-05T08:50:10;36.70;30.00
43999;DHT22;51319;52.162;5.302;2022-08-05T08:53:03;36.70;30.00
43999;DHT22;51319;52.162;5.302;2022-08-05T08:55:39;35.90;30.10
43999;DHT22;51319;52.162;5.302;2022-08-05T08:58:26;36.20;30.30
43999;DHT22;51319;52.162;5.302;2022-08-05T09:01:10;36.70;30.30
43999;DHT22;51319;52.162;5.302;2022-08-05T09:03:45;37.30;29.50
43999;DHT22;51319;52.162;5.302;2022-08-05T09:06:13;37.60;29.60
43999;DHT22;51319;52.162;5.302;2022-08-05T09:08:45;36.70;29.80
43999;DHT22;51319;52.162;5.302;2022-08-05T09:11:12;36.80;29.80
43999;DHT22;51319;52.162;5.302;2022-08-05T09:13:41;37.30;29.30
43999;DHT22;51319;52.162;5.302;2022-08-05T09:16:28;37.60;28.50
43999;DHT22;51319;52.162;5.302;2022-08-05T09:18:54;37.60;28.30
43999;DHT22;51319;52.162;5.302;2022-08-05T09:21:21;37.20;28.50
43999;DHT22;51319;52.162;5.302;2022-08-05T09:24:13;37.70;27.70
43999;DHT22;51319;52.162;5.302;2022-08-05T09:26:41;38.00;28.80
43999;DHT22;51319;52.162;5.302;2022-08-05T09:29:11;38.20;28.00
43999;DHT22;51319;52.162;5.302;2022-08-05T09:32:03;37.90;27.20
43999;DHT22;51319;52.162;5.302;2022-08-05T09:34:54;37.60;27.30
43999;DHT22;51319;52.162;5.302;2022-08-05T09:37:23;36.70;28.00
43999;DHT22;51319;52.162;5.302;2022-08-05T09:40:45;35.30;28.10
43999;DHT22;51319;52.162;5.302;2022-08-05T09:43:27;33.90;29.20
43999;DHT22;51319;52.162;5.302;2022-08-05T09:46:42;32.90;30.20
43999;DHT22;51319;52.162;5.302;2022-08-05T09:49:22;32.20;30.80
43999;DHT22;51319;52.162;5.302;2022-08-05T09:55:13;30.70;33.20
43999;DHT22;51319;52.162;5.302;2022-08-05T09:58:09;30.10;34.20
43999;DHT22;51319;52.162;5.302;2022-08-05T10:00:37;29.60;35.60
43999;DHT22;51319;52.162;5.302;2022-08-05T10:03:10;29.30;36.40
43999;DHT22;51319;52.162;5.302;2022-08-05T10:05:36;29.20;35.60
43999;DHT22;51319;52.162;5.302;2022-08-05T10:08:04;29.10;34.80
43999;DHT22;51319;52.162;5.302;2022-08-05T10:10:51;29.00;35.00
43999;DHT22;51319;52.162;5.302;2022-08-05T10:13:27;29.00;34.10
43999;DHT22;51319;52.162;5.302;2022-08-05T10:18:58;29.20;31.50
43999;DHT22;51319;52.162;5.302;2022-08-05T10:21:26;29.70;32.10
43999;DHT22;51319;52.162;5.302;2022-08-05T10:24:01;29.40;31.20
43999;DHT22;51319;52.162;5.302;2022-08-05T10:26:35;29.20;31.30
43999;DHT22;51319;52.162;5.302;2022-08-05T10:29:01;28.90;31.80
43999;DHT22;51319;52.162;5.302;2022-08-05T10:31:28;28.70;33.00
43999;DHT22;51319;52.162;5.302;2022-08-05T10:34:14;28.60;33.10
43999;DHT22;51319;52.162;5.302;2022-08-05T10:36:42;28.70;32.20
43999;DHT22;51319;52.162;5.302;2022-08-05T10:39:17;29.20;31.50
43999;DHT22;51319;52.162;5.302;2022-08-05T10:42:12;30.10;30.00
43999;DHT22;51319;52.162;5.302;2022-08-05T10:44:44;31.00;29.70
43999;DHT22;51319;52.162;5.302;2022-08-05T10:47:12;31.20;29.60
43999;DHT22;51319;52.162;5.302;2022-08-05T10:50:05;31.10;29.70
43999;DHT22;51319;52.162;5.302;2022-08-05T10:52:52;31.00;29.30
43999;DHT22;51319;52.162;5.302;2022-08-05T10:55:26;30.80;30.30
43999;DHT22;51319;52.162;5.302;2022-08-05T10:58:06;31.30;29.30
43999;DHT22;51319;52.162;5.302;2022-08-05T11:00:34;31.40;29.60
43999;DHT22;51319;52.162;5.302;2022-08-05T11:03:09;31.20;29.30
43999;DHT22;51319;52.162;5.302;2022-08-05T11:06:09;30.70;29.50
43999;DHT22;51319;52.162;5.302;2022-08-05T11:11:42;29.90;30.00
43999;DHT22;51319;52.162;5.302;2022-08-05T11:14:30;30.20;29.90
43999;DHT22;51319;52.162;5.302;2022-08-05T11:17:32;30.90;29.60
43999;DHT22;51319;52.162;5.302;2022-08-05T11:23:27;32.90;29.20
43999;DHT22;51319;52.162;5.302;2022-08-05T11:28:55;31.60;28.60
43999;DHT22;51319;52.162;5.302;2022-08-05T11:31:26;30.90;29.70
43999;DHT22;51319;52.162;5.302;2022-08-05T11:34:14;30.50;30.30
43999;DHT22;51319;52.162;5.302;2022-08-05T11:36:49;30.10;30.30
43999;DHT22;51319;52.162;5.302;2022-08-05T11:39:47;29.80;31.70
43999;DHT22;51319;52.162;5.302;2022-08-05T11:42:26;29.70;32.50
43999;DHT22;51319;52.162;5.302;2022-08-05T11:45:00;29.50;32.00
43999;DHT22;51319;52.162;5.302;2022-08-05T11:47:31;29.30;32.50
43999;DHT22;51319;52.162;5.302;2022-08-05T11:50:16;29.10;32.60
43999;DHT22;51319;52.162;5.302;2022-08-05T11:52:42;28.80;32.60
43999;DHT22;51319;52.162;5.302;2022-08-05T11:55:14;28.60;33.20
43999;DHT22;51319;52.162;5.302;2022-08-05T11:57:45;28.50;33.90
43999;DHT22;51319;52.162;5.302;2022-08-05T12:00:31;28.40;34.00
43999;DHT22;51319;52.162;5.302;2022-08-05T12:03:18;28.20;33.80
43999;DHT22;51319;52.162;5.302;2022-08-05T12:06:04;28.00;34.70
43999;DHT22;51319;52.162;5.302;2022-08-05T12:08:32;27.90;34.70
43999;DHT22;51319;52.162;5.302;2022-08-05T12:10:59;28.00;35.70
43999;DHT22;51319;52.162;5.302;2022-08-05T12:13:31;28.20;35.90
43999;DHT22;51319;52.162;5.302;2022-08-05T12:16:17;28.40;35.90
43999;DHT22;51319;52.162;5.302;2022-08-05T12:18:44;28.40;36.30
43999;DHT22;51319;52.162;5.302;2022-08-05T12:21:23;28.10;36.60
43999;DHT22;51319;52.162;5.302;2022-08-05T12:24:06;27.90;36.90
43999;DHT22;51319;52.162;5.302;2022-08-05T12:26:50;27.60;36.70
43999;DHT22;51319;52.162;5.302;2022-08-05T12:31:56;27.50;37.40
43999;DHT22;51319;52.162;5.302;2022-08-05T12:34:30;27.80;37.50
43999;DHT22;51319;52.162;5.302;2022-08-05T12:37:00;28.20;37.40
43999;DHT22;51319;52.162;5.302;2022-08-05T12:39:32;28.30;37.00
43999;DHT22;51319;52.162;5.302;2022-08-05T12:42:09;28.50;36.80
43999;DHT22;51319;52.162;5.302;2022-08-05T12:44:41;28.60;36.60
43999;DHT22;51319;52.162;5.302;2022-08-05T12:47:08;28.90;36.20
43999;DHT22;51319;52.162;5.302;2022-08-05T12:49:43;29.00;36.70
43999;DHT22;51319;52.162;5.302;2022-08-05T12:52:29;29.00;35.60
43999;DHT22;51319;52.162;5.302;2022-08-05T12:55:21;29.00;36.50
43999;DHT22;51319;52.162;5.302;2022-08-05T12:57:52;28.80;37.00
43999;DHT22;51319;52.162;5.302;2022-08-05T13:00:44;28.80;36.80
43999;DHT22;51319;52.162;5.302;2022-08-05T13:03:30;29.10;36.80
43999;DHT22;51319;52.162;5.302;2022-08-05T13:05:59;29.60;36.50
43999;DHT22;51319;52.162;5.302;2022-08-05T13:08:31;29.30;36.50
43999;DHT22;51319;52.162;5.302;2022-08-05T13:11:01;28.90;37.30
43999;DHT22;51319;52.162;5.302;2022-08-05T13:13:29;28.90;37.80
43999;DHT22;51319;52.162;5.302;2022-08-05T13:16:18;28.70;37.30
43999;DHT22;51319;52.162;5.302;2022-08-05T13:18:53;28.30;37.10
43999;DHT22;51319;52.162;5.302;2022-08-05T13:21:23;28.40;36.90
43999;DHT22;51319;52.162;5.302;2022-08-05T13:24:10;28.70;36.80
43999;DHT22;51319;52.162;5.302;2022-08-05T13:26:38;29.20;37.40
43999;DHT22;51319;52.162;5.302;2022-08-05T13:29:06;29.50;37.10
43999;DHT22;51319;52.162;5.302;2022-08-05T13:31:32;29.30;36.70
43999;DHT22;51319;52.162;5.302;2022-08-05T13:34:18;29.00;36.90
43999;DHT22;51319;52.162;5.302;2022-08-05T13:36:51;28.70;36.70
43999;DHT22;51319;52.162;5.302;2022-08-05T13:39:18;29.20;36.50
43999;DHT22;51319;52.162;5.302;2022-08-05T13:42:04;29.70;35.90
43999;DHT22;51319;52.162;5.302;2022-08-05T13:44:31;30.00;35.10
43999;DHT22;51319;52.162;5.302;2022-08-05T13:47:00;30.70;34.80
43999;DHT22;51319;52.162;5.302;2022-08-05T13:49:34;31.50;33.80
43999;DHT22;51319;52.162;5.302;2022-08-05T13:52:13;32.10;31.90
43999;DHT22;51319;52.162;5.302;2022-08-05T13:54:39;32.60;31.40
43999;DHT22;51319;52.162;5.302;2022-08-05T13:57:07;32.50;30.30
43999;DHT22;51319;52.162;5.302;2022-08-05T13:59:36;32.30;29.80
43999;DHT22;51319;52.162;5.302;2022-08-05T14:02:22;32.10;30.00
43999;DHT22;51319;52.162;5.302;2022-08-05T14:04:52;31.60;31.00
43999;DHT22;51319;52.162;5.302;2022-08-05T14:07:42;31.00;30.60
43999;DHT22;51319;52.162;5.302;2022-08-05T14:10:30;31.20;31.40
43999;DHT22;51319;52.162;5.302;2022-08-05T14:12:57;31.20;30.90
43999;DHT22;51319;52.162;5.302;2022-08-05T14:15:24;30.90;31.60
43999;DHT22;51319;52.162;5.302;2022-08-05T14:18:10;30.50;31.10
43999;DHT22;51319;52.162;5.302;2022-08-05T14:20:45;30.00;31.80
43999;DHT22;51319;52.162;5.302;2022-08-05T14:23:14;29.50;31.90
43999;DHT22;51319;52.162;5.302;2022-08-05T14:25:51;29.10;32.00
43999;DHT22;51319;52.162;5.302;2022-08-05T14:28:19;28.60;33.00
43999;DHT22;51319;52.162;5.302;2022-08-05T14:30:53;28.50;33.30
43999;DHT22;51319;52.162;5.302;2022-08-05T14:33:19;28.40;34.30
43999;DHT22;51319;52.162;5.302;2022-08-05T14:35:49;28.30;34.40
43999;DHT22;51319;52.162;5.302;2022-08-05T14:38:17;28.10;34.40
43999;DHT22;51319;52.162;5.302;2022-08-05T14:41:03;28.20;34.50
43999;DHT22;51319;52.162;5.302;2022-08-05T14:43:32;28.20;34.60
43999;DHT22;51319;52.162;5.302;2022-08-05T14:46:18;28.10;34.60
43999;DHT22;51319;52.162;5.302;2022-08-05T14:48:45;28.10;35.80
43999;DHT22;51319;52.162;5.302;2022-08-05T14:51:16;28.10;36.90
43999;DHT22;51319;52.162;5.302;2022-08-05T14:53:43;27.80;38.00
43999;DHT22;51319;52.162;5.302;2022-08-05T14:56:11;27.50;38.50
43999;DHT22;51319;52.162;5.302;2022-08-05T14:58:38;27.10;39.00
43999;DHT22;51319;52.162;5.302;2022-08-05T15:01:13;26.60;39.70
43999;DHT22;51319;52.162;5.302;2022-08-05T15:03:42;26.40;40.60
43999;DHT22;51319;52.162;5.302;2022-08-05T15:06:11;26.50;40.70
43999;DHT22;51319;52.162;5.302;2022-08-05T15:08:42;26.60;41.30
43999;DHT22;51319;52.162;5.302;2022-08-05T15:11:30;26.60;41.10
43999;DHT22;51319;52.162;5.302;2022-08-05T15:14:17;26.50;40.90
43999;DHT22;51319;52.162;5.302;2022-08-05T15:17:03;26.50;41.00
43999;DHT22;51319;52.162;5.302;2022-08-05T15:19:30;26.60;41.70
43999;DHT22;51319;52.162;5.302;2022-08-05T15:21:57;26.80;41.90
43999;DHT22;51319;52.162;5.302;2022-08-05T15:24:27;26.90;41.30
43999;DHT22;51319;52.162;5.302;2022-08-05T15:26:53;26.80;41.00
43999;DHT22;51319;52.162;5.302;2022-08-05T15:29:21;26.50;41.50
43999;DHT22;51319;52.162;5.302;2022-08-05T15:31:48;26.20;40.90
43999;DHT22;51319;52.162;5.302;2022-08-05T15:34:18;26.10;41.60
43999;DHT22;51319;52.162;5.302;2022-08-05T15:37:00;26.10;41.00
43999;DHT22;51319;52.162;5.302;2022-08-05T15:39:33;26.20;40.40
43999;DHT22;51319;52.162;5.302;2022-08-05T15:42:19;26.20;39.80
43999;DHT22;51319;52.162;5.302;2022-08-05T15:45:05;26.20;39.40
43999;DHT22;51319;52.162;5.302;2022-08-05T15:47:31;25.80;39.40
43999;DHT22;51319;52.162;5.302;2022-08-05T15:50:02;25.50;39.80
43999;DHT22;51319;52.162;5.302;2022-08-05T15:52:29;25.40;40.00
43999;DHT22;51319;52.162;5.302;2022-08-05T15:55:17;25.40;39.80
43999;DHT22;51319;52.162;5.302;2022-08-05T15:57:44;25.50;39.60
43999;DHT22;51319;52.162;5.302;2022-08-05T16:00:14;25.50;39.50
43999;DHT22;51319;52.162;5.302;2022-08-05T16:03:05;25.50;40.10
43999;DHT22;51319;52.162;5.302;2022-08-05T16:05:32;25.40;40.60
43999;DHT22;51319;52.162;5.302;2022-08-05T16:07:58;25.30;40.90
43999;DHT22;51319;52.162;5.302;2022-08-05T16:10:25;25.10;40.90
43999;DHT22;51319;52.162;5.302;2022-08-05T16:12:52;25.00;40.80
43999;DHT22;51319;52.162;5.302;2022-08-05T16:15:22;24.80;41.00
43999;DHT22;51319;52.162;5.302;2022-08-05T16:17:48;24.50;41.30
43999;DHT22;51319;52.162;5.302;2022-08-05T16:20:24;24.20;42.10
43999;DHT22;51319;52.162;5.302;2022-08-05T16:22:50;24.10;42.00
43999;DHT22;51319;52.162;5.302;2022-08-05T16:25:16;24.10;42.10
43999;DHT22;51319;52.162;5.302;2022-08-05T16:27:42;24.00;42.40
43999;DHT22;51319;52.162;5.302;2022-08-05T16:30:28;23.90;42.60
43999;DHT22;51319;52.162;5.302;2022-08-05T16:32:58;23.70;42.40
43999;DHT22;51319;52.162;5.302;2022-08-05T16:35:25;23.50;42.20
43999;DHT22;51319;52.162;5.302;2022-08-05T16:37:57;23.20;42.40
43999;DHT22;51319;52.162;5.302;2022-08-05T16:40:44;23.10;42.00
43999;DHT22;51319;52.162;5.302;2022-08-05T16:43:21;23.00;41.40
43999;DHT22;51319;52.162;5.302;2022-08-05T16:45:50;23.10;42.00